createdAt,value
2022-08-17T00:00:43.295Z,0.00
2022-08-17T00:01:38.496Z,0.00
2022-08-17T00:02:32.694Z,0.00
2022-08-17T00:03:32.617Z,0.00
2022-08-17T00:04:31.556Z,0.00
2022-08-17T00:05:31.574Z,0.00
2022-08-17T00:06:31.546Z,0.00
2022-08-17T00:07:31.535Z,0.00
2022-08-17T00:08:31.547Z,0.00
2022-08-17T00:09:31.512Z,0.00
2022-08-17T00:10:32.422Z,0.00
2022-08-17T00:11:31.511Z,0.00
2022-08-17T00:12:43.098Z,0.00
2022-08-17T00:13:32.435Z,0.00
2022-08-17T00:14:31.455Z,0.00
2022-08-17T00:15:31.408Z,0.00
2022-08-17T00:16:56.345Z,0.00
2022-08-17T00:17:32.418Z,0.00
2022-08-17T00:19:06.512Z,0.00
2022-08-17T00:19:32.372Z,0.00
2022-08-17T00:20:34.803Z,0.00
2022-08-17T00:22:29.444Z,0.00
2022-08-17T00:22:36.475Z,0.00
2022-08-17T00:23:31.306Z,0.00
2022-08-17T00:24:31.306Z,0.00
2022-08-17T00:25:31.316Z,0.00
2022-08-17T00:26:43.755Z,0.00
2022-08-17T00:27:32.315Z,0.00
2022-08-17T00:28:31.242Z,0.00
2022-08-17T00:29:31.249Z,0.00
2022-08-17T00:30:31.210Z,0.00
2022-08-17T00:31:32.192Z,0.00
2022-08-17T00:33:15.898Z,0.00
2022-08-17T00:33:32.185Z,0.00
2022-08-17T00:34:31.169Z,0.00
2022-08-17T00:35:31.140Z,0.00
2022-08-17T00:36:31.184Z,0.00
2022-08-17T00:37:31.112Z,0.00
2022-08-17T00:38:31.097Z,0.00
2022-08-17T00:39:31.138Z,0.00
2022-08-17T00:40:39.778Z,0.00
2022-08-17T00:41:32.113Z,0.00
2022-08-17T00:42:31.433Z,0.00
2022-08-17T00:43:31.043Z,0.00
2022-08-17T00:44:31.250Z,0.00
2022-08-17T00:47:20.862Z,0.00
2022-08-17T00:48:29.454Z,0.00
2022-08-17T00:49:21.720Z,0.00
2022-08-17T00:50:20.689Z,0.00
2022-08-17T00:51:20.663Z,0.00
2022-08-17T00:52:20.724Z,0.00
2022-08-17T00:53:20.654Z,0.00
2022-08-17T00:54:20.658Z,0.00
2022-08-17T00:55:20.619Z,0.00
2022-08-17T00:56:20.634Z,0.00
2022-08-17T00:57:20.617Z,0.00
2022-08-17T00:58:30.432Z,0.00
2022-08-17T00:59:21.581Z,0.00
2022-08-17T01:00:20.557Z,0.00
2022-08-17T01:01:21.279Z,0.00
2022-08-17T01:02:20.531Z,0.00
2022-08-17T01:03:20.530Z,0.00
2022-08-17T01:04:20.505Z,0.00
2022-08-17T01:05:20.890Z,0.00
2022-08-17T01:06:20.480Z,0.00
2022-08-17T01:07:20.453Z,0.00
2022-08-17T01:08:20.471Z,0.00
2022-08-17T01:09:20.449Z,0.00
2022-08-17T01:10:58.995Z,0.00
2022-08-17T01:11:21.460Z,0.00
2022-08-17T01:12:20.422Z,0.00
2022-08-17T01:13:20.422Z,0.00
2022-08-17T01:14:20.415Z,0.00
2022-08-17T01:15:20.337Z,0.00
2022-08-17T01:16:20.382Z,0.00
2022-08-17T01:17:20.327Z,0.00
2022-08-17T01:18:20.323Z,0.00
2022-08-17T01:19:20.309Z,0.00
2022-08-17T01:20:20.342Z,0.00
2022-08-17T01:21:20.298Z,0.00
2022-08-17T01:22:20.258Z,0.00
2022-08-17T01:23:20.818Z,0.00
2022-08-17T01:24:20.219Z,0.00
2022-08-17T01:25:20.224Z,0.00
2022-08-17T01:26:20.268Z,0.00
2022-08-17T01:27:20.675Z,0.00
2022-08-17T01:28:33.643Z,0.00
2022-08-17T01:29:21.171Z,0.00
2022-08-17T01:30:57.437Z,0.00
2022-08-17T01:31:21.152Z,0.00
2022-08-17T01:32:20.185Z,0.00
2022-08-17T01:33:20.109Z,0.00
2022-08-17T01:34:20.138Z,0.00
2022-08-17T01:35:20.114Z,0.00
2022-08-17T01:36:20.069Z,0.00
2022-08-17T01:37:20.057Z,0.00
2022-08-17T01:38:26.504Z,0.00
2022-08-17T01:39:21.049Z,0.00
2022-08-17T01:40:20.080Z,0.00
2022-08-17T01:41:20.013Z,0.00
2022-08-17T01:42:20.008Z,0.00
2022-08-17T01:43:20.005Z,0.00
2022-08-17T01:44:19.981Z,0.00
2022-08-17T01:45:19.945Z,0.00
2022-08-17T01:46:19.968Z,0.00
2022-08-17T01:47:20.081Z,0.00
2022-08-17T01:48:19.904Z,0.00
2022-08-17T01:49:19.888Z,0.00
2022-08-17T01:50:19.926Z,0.00
2022-08-17T01:51:19.889Z,0.00
2022-08-17T01:52:19.865Z,0.00
2022-08-17T01:53:19.849Z,0.00
2022-08-17T01:54:19.870Z,0.00
2022-08-17T01:55:22.431Z,0.00
2022-08-17T01:56:19.797Z,0.00
2022-08-17T01:57:19.806Z,0.00
2022-08-17T01:58:19.838Z,0.00
2022-08-17T01:59:19.773Z,0.00
2022-08-17T02:00:19.752Z,0.00
2022-08-17T02:01:19.785Z,0.00
2022-08-17T02:02:30.425Z,0.00
2022-08-17T02:03:20.693Z,0.00
2022-08-17T02:04:19.749Z,0.00
2022-08-17T02:05:19.694Z,0.00
2022-08-17T02:06:27.958Z,0.00
2022-08-17T02:07:20.654Z,0.00
2022-08-17T02:08:20.637Z,0.00
2022-08-17T02:09:22.296Z,0.00
2022-08-17T02:10:20.303Z,0.00
2022-08-17T02:11:19.631Z,0.00
2022-08-17T02:12:39.135Z,0.00
2022-08-17T02:13:20.597Z,0.00
2022-08-17T02:14:19.598Z,0.00
2022-08-17T02:15:19.539Z,0.00
2022-08-17T02:16:19.528Z,0.00
2022-08-17T02:17:19.557Z,0.00
2022-08-17T02:18:19.506Z,0.00
2022-08-17T02:19:19.501Z,0.00
2022-08-17T02:20:41.237Z,0.00
2022-08-17T02:21:20.480Z,0.00
2022-08-17T02:22:19.513Z,0.00
2022-08-17T02:23:19.462Z,0.00
2022-08-17T02:24:58.569Z,0.00
2022-08-17T02:25:20.452Z,0.00
2022-08-17T02:26:26.243Z,0.00
2022-08-17T02:27:20.425Z,0.00
2022-08-17T02:28:19.365Z,0.00
2022-08-17T02:29:19.350Z,0.00
2022-08-17T02:30:59.985Z,0.00
2022-08-17T02:31:20.374Z,0.00
2022-08-17T02:32:20.932Z,0.00
2022-08-17T02:33:20.368Z,0.00
2022-08-17T02:34:19.283Z,0.00
2022-08-17T02:35:19.285Z,0.00
2022-08-17T02:36:21.142Z,0.00
2022-08-17T02:37:19.251Z,0.00
2022-08-17T02:38:19.236Z,0.00
2022-08-17T02:39:19.236Z,0.00
2022-08-17T02:40:19.227Z,0.00
2022-08-17T02:41:20.268Z,0.00
2022-08-17T02:42:19.188Z,0.00
2022-08-17T02:43:19.182Z,0.00
2022-08-17T02:44:39.981Z,0.00
2022-08-17T02:45:20.150Z,0.00
2022-08-17T02:46:19.156Z,0.00
2022-08-17T02:47:19.128Z,0.00
2022-08-17T02:48:29.697Z,0.00
2022-08-17T02:49:20.080Z,0.00
2022-08-17T02:50:19.113Z,0.00
2022-08-17T02:51:19.070Z,0.00
2022-08-17T02:52:19.063Z,0.00
2022-08-17T02:53:20.027Z,0.00
2022-08-17T02:54:41.648Z,0.00
2022-08-17T02:55:20.057Z,0.00
2022-08-17T02:56:18.988Z,0.00
2022-08-17T02:57:18.970Z,0.00
2022-08-17T02:58:18.958Z,0.00
2022-08-17T02:59:19.966Z,0.00
2022-08-17T03:00:18.934Z,0.00
2022-08-17T03:01:18.990Z,0.00
2022-08-17T03:02:18.947Z,0.00
2022-08-17T03:03:18.919Z,0.00
2022-08-17T03:04:18.946Z,0.00
2022-08-17T03:05:18.875Z,0.00
2022-08-17T03:06:18.926Z,0.00
2022-08-17T03:07:18.837Z,0.00
2022-08-17T03:08:18.845Z,0.00
2022-08-17T03:09:18.842Z,0.00
2022-08-17T03:10:18.808Z,0.00
2022-08-17T03:11:18.786Z,0.00
2022-08-17T03:12:18.775Z,0.00
2022-08-17T03:13:18.761Z,0.00
2022-08-17T03:14:18.771Z,0.00
2022-08-17T03:15:19.739Z,0.00
2022-08-17T03:16:18.757Z,0.00
2022-08-17T03:17:18.733Z,0.00
2022-08-17T03:18:21.939Z,0.00
2022-08-17T03:19:19.692Z,0.00
2022-08-17T03:20:18.684Z,0.00
2022-08-17T03:21:18.659Z,0.00
2022-08-17T03:22:36.854Z,0.00
2022-08-17T03:23:23.769Z,0.00
2022-08-17T03:24:18.640Z,0.00
2022-08-17T03:25:19.620Z,0.00
2022-08-17T03:26:18.612Z,0.00
2022-08-17T03:27:18.573Z,0.00
2022-08-17T03:28:18.557Z,0.00
2022-08-17T03:29:18.547Z,0.00
2022-08-17T03:30:18.573Z,0.00
2022-08-17T03:31:18.542Z,0.00
2022-08-17T03:32:18.539Z,0.00
2022-08-17T03:33:18.499Z,0.00
2022-08-17T03:34:18.477Z,0.00
2022-08-17T03:35:18.451Z,0.00
2022-08-17T03:36:18.456Z,0.00
2022-08-17T03:37:18.459Z,0.00
2022-08-17T03:38:18.414Z,0.00
2022-08-17T03:39:18.410Z,0.00
2022-08-17T03:40:18.391Z,0.00
2022-08-17T03:41:19.391Z,0.00
2022-08-17T03:42:31.291Z,0.00
2022-08-17T03:43:19.398Z,0.00
2022-08-17T03:44:18.355Z,0.00
2022-08-17T03:45:18.333Z,0.00
2022-08-17T03:46:27.775Z,0.00
2022-08-17T03:47:19.402Z,0.00
2022-08-17T03:48:18.367Z,4.00
2022-08-17T03:49:18.288Z,0.00
2022-08-17T03:50:18.274Z,0.00
2022-08-17T03:51:18.396Z,4.00
2022-08-17T03:52:18.339Z,4.00
2022-08-17T03:53:18.301Z,4.00
2022-08-17T03:54:18.202Z,4.00
2022-08-17T03:55:18.208Z,4.00
2022-08-17T03:56:18.188Z,4.00
2022-08-17T03:57:18.184Z,4.00
2022-08-17T03:58:18.181Z,8.00
2022-08-17T03:59:20.811Z,4.00
2022-08-17T04:00:18.168Z,8.00
2022-08-17T04:01:18.341Z,8.00
2022-08-17T04:02:18.157Z,8.00
2022-08-17T04:03:18.115Z,12.00
2022-08-17T04:04:18.167Z,12.00
2022-08-17T04:05:18.141Z,16.00
2022-08-17T04:06:18.089Z,12.00
2022-08-17T04:07:18.093Z,16.00
2022-08-17T04:08:18.036Z,20.00
2022-08-17T04:09:18.059Z,20.00
2022-08-17T04:10:18.070Z,24.00
2022-08-17T04:11:18.077Z,28.00
2022-08-17T04:12:18.163Z,28.00
2022-08-17T04:13:24.926Z,28.00
2022-08-17T04:14:19.020Z,32.00
2022-08-17T04:15:17.976Z,40.00
2022-08-17T04:16:17.968Z,40.00
2022-08-17T04:17:17.982Z,48.00
2022-08-17T04:18:17.962Z,52.00
2022-08-17T04:19:17.930Z,56.00
2022-08-17T04:20:17.912Z,60.00
2022-08-17T04:21:18.036Z,68.00
2022-08-17T04:22:30.647Z,72.00
2022-08-17T04:23:18.947Z,76.00
2022-08-17T04:24:17.941Z,80.00
2022-08-17T04:25:17.811Z,84.00
2022-08-17T04:26:53.981Z,88.00
2022-08-17T04:27:18.993Z,92.00
2022-08-17T04:28:17.904Z,100.00
2022-08-17T04:29:17.860Z,108.00
2022-08-17T04:30:17.794Z,116.00
2022-08-17T04:31:17.792Z,124.00
2022-08-17T04:32:21.751Z,132.00
2022-08-17T04:33:18.687Z,140.00
2022-08-17T04:34:19.570Z,148.00
2022-08-17T04:35:17.744Z,156.00
2022-08-17T04:36:17.772Z,164.00
2022-08-17T04:37:17.759Z,168.00
2022-08-17T04:38:17.710Z,180.00
2022-08-17T04:39:17.662Z,188.00
2022-08-17T04:40:17.715Z,196.00
2022-08-17T04:41:17.616Z,208.00
2022-08-17T04:42:17.628Z,220.00
2022-08-17T04:43:18.845Z,228.00
2022-08-17T04:44:36.824Z,236.00
2022-08-17T04:45:18.634Z,252.00
2022-08-17T04:46:17.586Z,264.00
2022-08-17T04:47:17.551Z,276.00
2022-08-17T04:48:17.615Z,292.00
2022-08-17T04:49:17.550Z,308.00
2022-08-17T04:50:17.530Z,328.00
2022-08-17T04:51:17.557Z,348.00
2022-08-17T04:52:29.775Z,372.00
2022-08-17T04:53:18.580Z,392.00
2022-08-17T04:54:17.435Z,420.00
2022-08-17T04:55:17.457Z,444.00
2022-08-17T04:56:18.154Z,464.00
2022-08-17T04:57:17.424Z,484.00
2022-08-17T04:58:17.361Z,504.00
2022-08-17T04:59:17.468Z,524.00
2022-08-17T05:00:17.312Z,540.00
2022-08-17T05:01:17.355Z,556.00
2022-08-17T05:02:18.361Z,572.00
2022-08-17T05:03:17.346Z,592.00
2022-08-17T05:04:19.943Z,608.00
2022-08-17T05:05:18.264Z,632.00
2022-08-17T05:06:17.274Z,660.00
2022-08-17T05:07:22.549Z,684.00
2022-08-17T05:08:18.257Z,700.00
2022-08-17T05:09:17.331Z,708.00
2022-08-17T05:10:17.289Z,712.00
2022-08-17T05:11:17.288Z,716.00
2022-08-17T05:12:17.170Z,716.00
2022-08-17T05:13:17.159Z,716.00
2022-08-17T05:14:17.185Z,712.00
2022-08-17T05:15:17.161Z,696.00
2022-08-17T05:16:17.134Z,688.00
2022-08-17T05:17:17.158Z,680.00
2022-08-17T05:18:17.086Z,676.00
2022-08-17T05:19:17.113Z,684.00
2022-08-17T05:20:17.109Z,696.00
2022-08-17T05:21:17.076Z,712.00
2022-08-17T05:22:17.015Z,728.00
2022-08-17T05:23:17.018Z,736.00
2022-08-17T05:24:39.837Z,748.00
2022-08-17T05:25:18.026Z,752.00
2022-08-17T05:26:23.167Z,764.00
2022-08-17T05:27:18.839Z,776.00
2022-08-17T05:28:16.968Z,792.00
2022-08-17T05:29:16.968Z,808.00
2022-08-17T05:30:16.907Z,824.00
2022-08-17T05:31:16.929Z,836.00
2022-08-17T05:32:37.236Z,856.00
2022-08-17T05:33:17.909Z,872.00
2022-08-17T05:34:16.988Z,892.00
2022-08-17T05:35:16.850Z,912.00
2022-08-17T05:36:37.861Z,936.00
2022-08-17T05:37:17.825Z,952.00
2022-08-17T05:38:16.890Z,976.00
2022-08-17T05:39:17.429Z,1004.00
2022-08-17T05:40:16.818Z,1024.00
2022-08-17T05:41:16.801Z,1056.00
2022-08-17T05:42:16.948Z,1080.00
2022-08-17T05:43:16.770Z,1104.00
2022-08-17T05:44:16.865Z,1128.00
2022-08-17T05:45:16.806Z,1144.00
2022-08-17T05:46:17.737Z,1168.00
2022-08-17T05:47:16.747Z,1176.00
2022-08-17T05:48:16.689Z,1192.00
2022-08-17T05:49:16.683Z,1196.00
2022-08-17T05:50:18.339Z,1196.00
2022-08-17T05:51:17.674Z,1192.00
2022-08-17T05:52:18.898Z,1184.00
2022-08-17T05:53:16.613Z,1180.00
2022-08-17T05:54:16.615Z,1180.00
2022-08-17T05:55:16.618Z,1176.00
2022-08-17T05:56:29.252Z,1188.00
2022-08-17T05:57:17.603Z,1196.00
2022-08-17T05:58:16.548Z,1204.00
2022-08-17T05:59:16.524Z,1224.00
2022-08-17T06:00:16.498Z,1248.00
2022-08-17T06:01:16.600Z,1268.00
2022-08-17T06:02:16.480Z,1296.00
2022-08-17T06:03:16.505Z,1328.00
2022-08-17T06:04:16.453Z,1364.00
2022-08-17T06:05:16.441Z,1400.00
2022-08-17T06:06:16.453Z,1448.00
2022-08-17T06:07:16.468Z,1504.00
2022-08-17T06:08:16.410Z,1556.00
2022-08-17T06:09:18.801Z,1616.00
2022-08-17T06:10:17.395Z,1676.00
2022-08-17T06:11:16.352Z,1724.00
2022-08-17T06:12:19.738Z,1772.00
2022-08-17T06:13:16.358Z,1824.00
2022-08-17T06:14:16.347Z,1872.00
2022-08-17T06:15:16.336Z,1912.00
2022-08-17T06:16:33.134Z,1948.00
2022-08-17T06:17:17.295Z,1980.00
2022-08-17T06:18:19.135Z,2000.00
2022-08-17T06:19:16.275Z,2016.00
2022-08-17T06:20:16.248Z,2048.00
2022-08-17T06:21:16.263Z,2084.00
2022-08-17T06:22:16.208Z,2124.00
2022-08-17T06:23:16.210Z,2172.00
2022-08-17T06:24:16.188Z,2212.00
2022-08-17T06:25:16.196Z,2252.00
2022-08-17T06:26:16.198Z,2288.00
2022-08-17T06:27:16.154Z,2312.00
2022-08-17T06:28:16.143Z,2344.00
2022-08-17T06:29:18.840Z,2352.00
2022-08-17T06:30:16.125Z,2360.00
2022-08-17T06:31:16.092Z,2372.00
2022-08-17T06:32:16.090Z,2340.00
2022-08-17T06:33:16.053Z,2336.00
2022-08-17T06:34:16.053Z,2356.00
2022-08-17T06:35:16.052Z,2360.00
2022-08-17T06:36:16.218Z,2356.00
2022-08-17T06:37:16.051Z,2364.00
2022-08-17T06:38:37.515Z,2372.00
2022-08-17T06:39:17.035Z,2388.00
2022-08-17T06:40:16.097Z,2400.00
2022-08-17T06:41:16.011Z,2404.00
2022-08-17T06:43:04.966Z,2412.00
2022-08-17T06:43:16.963Z,2440.00
2022-08-17T06:44:43.563Z,2472.00
2022-08-17T06:45:16.928Z,2488.00
2022-08-17T06:46:24.766Z,2488.00
2022-08-17T06:47:15.990Z,2512.00
2022-08-17T06:48:17.105Z,2516.00
2022-08-17T06:49:16.068Z,2520.00
2022-08-17T06:50:15.825Z,2532.00
2022-08-17T06:51:15.829Z,2544.00
2022-08-17T06:52:42.464Z,2564.00
2022-08-17T06:53:16.786Z,2576.00
2022-08-17T06:54:15.787Z,2576.00
2022-08-17T06:55:17.866Z,2572.00
2022-08-17T06:56:15.749Z,2564.00
2022-08-17T06:57:15.732Z,2556.00
2022-08-17T06:58:16.807Z,2552.00
2022-08-17T06:59:15.710Z,2544.00
2022-08-17T07:00:15.691Z,2544.00
2022-08-17T07:01:15.702Z,2548.00
2022-08-17T07:03:44.802Z,2600.00
2022-08-17T07:04:44.773Z,2648.00
2022-08-17T07:05:44.782Z,2700.00
2022-08-17T07:06:44.762Z,2740.00
2022-08-17T07:07:44.718Z,2764.00
2022-08-17T07:08:44.689Z,2800.00
2022-08-17T07:09:44.682Z,2844.00
2022-08-17T07:10:44.683Z,2884.00
2022-08-17T07:11:44.723Z,2920.00
2022-08-17T07:12:44.648Z,2972.00
2022-08-17T07:13:50.520Z,3008.00
2022-08-17T07:14:45.662Z,3044.00
2022-08-17T07:15:44.637Z,3080.00
2022-08-17T07:16:44.585Z,3104.00
2022-08-17T07:17:57.377Z,3128.00
2022-08-17T07:18:45.584Z,3148.00
2022-08-17T07:19:44.556Z,3152.00
2022-08-17T07:20:44.562Z,3152.00
2022-08-17T07:21:44.559Z,3152.00
2022-08-17T07:22:57.211Z,3148.00
2022-08-17T07:23:45.519Z,3132.00
2022-08-17T07:24:44.539Z,3108.00
2022-08-17T07:25:44.489Z,3092.00
2022-08-17T07:26:44.490Z,3092.00
2022-08-17T07:27:44.469Z,3104.00
2022-08-17T07:28:44.432Z,3120.00
2022-08-17T07:29:44.436Z,3136.00
2022-08-17T07:30:47.529Z,3152.00
2022-08-17T07:31:44.401Z,3168.00
2022-08-17T07:32:44.406Z,3176.00
2022-08-17T07:33:44.392Z,3184.00
2022-08-17T07:34:44.393Z,3204.00
2022-08-17T07:35:44.428Z,3232.00
2022-08-17T07:36:44.336Z,3256.00
2022-08-17T07:37:44.344Z,3264.00
2022-08-17T07:38:44.306Z,3264.00
2022-08-17T07:40:15.568Z,3264.00
2022-08-17T07:40:45.333Z,3280.00
2022-08-17T07:41:53.139Z,3296.00
2022-08-17T07:42:46.707Z,3328.00
2022-08-17T07:43:44.258Z,3368.00
2022-08-17T07:44:44.237Z,3416.00
2022-08-17T07:45:44.245Z,3460.00
2022-08-17T07:46:44.210Z,3500.00
2022-08-17T07:47:44.196Z,3532.00
2022-08-17T07:48:44.171Z,3572.00
2022-08-17T07:49:44.185Z,3600.00
2022-08-17T07:50:49.329Z,3620.00
2022-08-17T07:51:45.131Z,3628.00
2022-08-17T07:52:51.931Z,3656.00
2022-08-17T07:53:45.102Z,3668.00
2022-08-17T07:54:44.118Z,3696.00
2022-08-17T07:55:44.106Z,3708.00
2022-08-17T07:56:44.077Z,3708.00
2022-08-17T07:57:44.109Z,3716.00
2022-08-17T07:58:44.040Z,3768.00
2022-08-17T07:59:44.027Z,3780.00
2022-08-17T08:00:44.017Z,3784.00
2022-08-17T08:01:44.082Z,3776.00
2022-08-17T08:02:43.997Z,3788.00
2022-08-17T08:03:43.985Z,3828.00
2022-08-17T08:04:59.649Z,3844.00
2022-08-17T08:05:50.105Z,3872.00
2022-08-17T08:06:44.979Z,3968.00
2022-08-17T08:07:43.949Z,4088.00
2022-08-17T08:08:43.917Z,4240.00
2022-08-17T08:09:43.889Z,4428.00
2022-08-17T08:10:45.074Z,4536.00
2022-08-17T08:11:44.437Z,4640.00
2022-08-17T08:12:43.861Z,4692.00
2022-08-17T08:13:44.003Z,4704.00
2022-08-17T08:14:43.831Z,4736.00
2022-08-17T08:15:45.232Z,4780.00
2022-08-17T08:16:44.796Z,4868.00
2022-08-17T08:17:43.841Z,4984.00
2022-08-17T08:18:55.065Z,5064.00
2022-08-17T08:19:44.796Z,5116.00
2022-08-17T08:20:51.804Z,5116.00
2022-08-17T08:21:44.746Z,5080.00
2022-08-17T08:22:43.718Z,5028.00
2022-08-17T08:23:43.725Z,4916.00
2022-08-17T08:24:43.722Z,4748.00
2022-08-17T08:25:43.687Z,4548.00
2022-08-17T08:26:43.676Z,4352.00
2022-08-17T08:27:43.710Z,4180.00
2022-08-17T08:28:43.638Z,4008.00
2022-08-17T08:29:43.635Z,3868.00
2022-08-17T08:30:43.654Z,3736.00
2022-08-17T08:31:43.622Z,3636.00
2022-08-17T08:32:43.603Z,3552.00
2022-08-17T08:33:43.590Z,3512.00
2022-08-17T08:34:59.211Z,3496.00
2022-08-17T08:35:44.592Z,3496.00
2022-08-17T08:37:12.921Z,3520.00
2022-08-17T08:37:44.534Z,3524.00
2022-08-17T08:38:43.513Z,3524.00
2022-08-17T08:39:43.514Z,3408.00
2022-08-17T08:40:43.510Z,3452.00
2022-08-17T08:41:43.485Z,3416.00
2022-08-17T08:42:43.449Z,3424.00
2022-08-17T08:43:43.455Z,3460.00
2022-08-17T08:45:00.435Z,3520.00
2022-08-17T08:45:44.440Z,3612.00
2022-08-17T08:46:43.437Z,3712.00
2022-08-17T08:47:43.402Z,3848.00
2022-08-17T08:48:53.141Z,3972.00
2022-08-17T08:50:03.424Z,4120.00
2022-08-17T08:50:44.367Z,4324.00
2022-08-17T08:51:43.339Z,4476.00
2022-08-17T08:52:43.332Z,4640.00
2022-08-17T08:53:43.329Z,4808.00
2022-08-17T08:54:43.316Z,4936.00
2022-08-17T08:55:43.296Z,5056.00
2022-08-17T08:56:53.993Z,5144.00
2022-08-17T08:57:44.306Z,5216.00
2022-08-17T08:58:43.265Z,5236.00
2022-08-17T08:59:56.167Z,5252.00
2022-08-17T09:00:44.223Z,5268.00
2022-08-17T09:01:43.277Z,5244.00
2022-08-17T09:02:43.198Z,5180.00
2022-08-17T09:03:52.732Z,5084.00
2022-08-17T09:05:10.349Z,4956.00
2022-08-17T09:05:44.166Z,4840.00
2022-08-17T09:06:43.171Z,4744.00
2022-08-17T09:07:43.201Z,4608.00
2022-08-17T09:08:43.115Z,4424.00
2022-08-17T09:09:43.174Z,4212.00
2022-08-17T09:10:43.789Z,3976.00
2022-08-17T09:12:02.829Z,3760.00
2022-08-17T09:12:44.077Z,3556.00
2022-08-17T09:13:43.054Z,3440.00
2022-08-17T09:14:43.114Z,3312.00
2022-08-17T09:15:43.019Z,3188.00
2022-08-17T09:16:43.030Z,3080.00
2022-08-17T09:17:43.130Z,3004.00
2022-08-17T09:19:02.795Z,2968.00
2022-08-17T09:19:43.986Z,2952.00
2022-08-17T09:20:46.639Z,2968.00
2022-08-17T09:21:48.794Z,3020.00
2022-08-17T09:22:42.952Z,3076.00
2022-08-17T09:23:42.927Z,3148.00
2022-08-17T09:24:42.934Z,3196.00
2022-08-17T09:25:42.900Z,3220.00
2022-08-17T09:26:42.903Z,3180.00
2022-08-17T09:27:42.941Z,3124.00
2022-08-17T09:28:42.870Z,3060.00
2022-08-17T09:29:49.120Z,2972.00
2022-08-17T09:30:42.897Z,2924.00
2022-08-17T09:31:46.489Z,2896.00
2022-08-17T09:32:43.880Z,2972.00
2022-08-17T09:33:42.802Z,3196.00
2022-08-17T09:34:43.588Z,3468.00
2022-08-17T09:35:42.762Z,3700.00
2022-08-17T09:36:42.764Z,3824.00
2022-08-17T09:37:42.760Z,3872.00
2022-08-17T09:38:42.741Z,3872.00
2022-08-17T09:39:42.792Z,3848.00
2022-08-17T09:40:42.704Z,3800.00
2022-08-17T09:41:48.723Z,3744.00
2022-08-17T09:42:43.678Z,3712.00
2022-08-17T09:43:42.816Z,3708.00
2022-08-17T09:44:42.646Z,3700.00
2022-08-17T09:45:42.651Z,3680.00
2022-08-17T09:46:42.642Z,3620.00
2022-08-17T09:47:42.897Z,3540.00
2022-08-17T09:48:42.607Z,3548.00
2022-08-17T09:49:42.608Z,3628.00
2022-08-17T09:51:03.708Z,3652.00
2022-08-17T09:51:43.556Z,3712.00
2022-08-17T09:52:42.566Z,3684.00
2022-08-17T09:53:44.687Z,3592.00
2022-08-17T09:54:42.558Z,3436.00
2022-08-17T09:55:42.524Z,3280.00
2022-08-17T09:56:46.253Z,3172.00
2022-08-17T09:57:43.569Z,3092.00
2022-08-17T09:58:42.483Z,3044.00
2022-08-17T09:59:42.481Z,2992.00
2022-08-17T10:00:42.443Z,2956.00
2022-08-17T10:01:42.478Z,2908.00
2022-08-17T10:02:42.426Z,2860.00
2022-08-17T10:03:42.441Z,2804.00
2022-08-17T10:04:42.389Z,2764.00
2022-08-17T10:05:42.393Z,2740.00
2022-08-17T10:06:42.405Z,2724.00
2022-08-17T10:07:42.364Z,2720.00
2022-08-17T10:08:42.346Z,2704.00
2022-08-17T10:09:42.356Z,2684.00
2022-08-17T10:10:42.349Z,2660.00
2022-08-17T10:11:45.644Z,2652.00
2022-08-17T10:12:46.365Z,2664.00
2022-08-17T10:13:52.000Z,2724.00
2022-08-17T10:14:44.484Z,2852.00
2022-08-17T10:15:42.736Z,2988.00
2022-08-17T10:16:42.239Z,3084.00
2022-08-17T10:17:42.217Z,3188.00
2022-08-17T10:18:42.207Z,3244.00
2022-08-17T10:19:44.144Z,3280.00
2022-08-17T10:20:42.187Z,3256.00
2022-08-17T10:21:42.179Z,3160.00
2022-08-17T10:22:42.151Z,3008.00
2022-08-17T10:23:42.130Z,2824.00
2022-08-17T10:25:21.453Z,2612.00
2022-08-17T10:25:54.511Z,2412.00
2022-08-17T10:26:56.193Z,2260.00
2022-08-17T10:27:43.159Z,2132.00
2022-08-17T10:28:42.073Z,2060.00
2022-08-17T10:29:48.403Z,2032.00
2022-08-17T10:30:43.068Z,2024.00
2022-08-17T10:31:42.062Z,2020.00
2022-08-17T10:32:42.026Z,2036.00
2022-08-17T10:33:42.033Z,2040.00
2022-08-17T10:34:42.074Z,2052.00
2022-08-17T10:35:41.966Z,2028.00
2022-08-17T10:36:41.977Z,2004.00
2022-08-17T10:37:41.965Z,2028.00
2022-08-17T10:38:41.957Z,2072.00
2022-08-17T10:39:52.202Z,2140.00
2022-08-17T10:40:42.924Z,2212.00
2022-08-17T10:41:41.907Z,2264.00
2022-08-17T10:42:41.916Z,2272.00
2022-08-17T10:43:41.887Z,2272.00
2022-08-17T10:44:41.870Z,2268.00
2022-08-17T10:45:41.870Z,2304.00
2022-08-17T10:46:41.835Z,2316.00
2022-08-17T10:47:54.901Z,2292.00
2022-08-17T10:48:42.839Z,2264.00
2022-08-17T10:49:41.810Z,2232.00
2022-08-17T10:50:41.801Z,2172.00
2022-08-17T10:51:41.778Z,2116.00
2022-08-17T10:52:41.763Z,2052.00
2022-08-17T10:53:41.758Z,1952.00
2022-08-17T10:54:41.752Z,1860.00
2022-08-17T10:55:41.734Z,1784.00
2022-08-17T10:56:41.722Z,1772.00
2022-08-17T10:57:41.689Z,1768.00
2022-08-17T10:58:41.686Z,1768.00
2022-08-17T10:59:41.678Z,1776.00
2022-08-17T11:00:41.711Z,1796.00
2022-08-17T11:01:41.636Z,1820.00
2022-08-17T11:02:41.642Z,1864.00
2022-08-17T11:03:41.630Z,1896.00
2022-08-17T11:04:41.608Z,1916.00
2022-08-17T11:05:43.990Z,1892.00
2022-08-17T11:06:41.568Z,1836.00
2022-08-17T11:07:41.557Z,1764.00
2022-08-17T11:08:41.545Z,1688.00
2022-08-17T11:09:41.550Z,1624.00
2022-08-17T11:10:41.513Z,1576.00
2022-08-17T11:11:41.658Z,1548.00
2022-08-17T11:12:42.391Z,1516.00
2022-08-17T11:13:41.494Z,1516.00
2022-08-17T11:14:41.495Z,1536.00
2022-08-17T11:15:41.460Z,1556.00
2022-08-17T11:16:41.473Z,1592.00
2022-08-17T11:17:41.466Z,1572.00
2022-08-17T11:18:41.448Z,1548.00
2022-08-17T11:19:41.403Z,1520.00
2022-08-17T11:20:41.403Z,1544.00
2022-08-17T11:21:41.399Z,1564.00
2022-08-17T11:22:41.384Z,1616.00
2022-08-17T11:23:41.345Z,1656.00
2022-08-17T11:24:44.665Z,1672.00
2022-08-17T11:25:41.336Z,1632.00
2022-08-17T11:26:41.307Z,1568.00
2022-08-17T11:27:41.328Z,1508.00
2022-08-17T11:28:41.286Z,1460.00
2022-08-17T11:29:41.267Z,1428.00
2022-08-17T11:30:41.289Z,1392.00
2022-08-17T11:31:41.338Z,1380.00
2022-08-17T11:32:47.250Z,1364.00
2022-08-17T11:33:42.243Z,1396.00
2022-08-17T11:34:41.205Z,1492.00
2022-08-17T11:35:41.193Z,1600.00
2022-08-17T11:36:41.174Z,1684.00
2022-08-17T11:37:41.184Z,1784.00
2022-08-17T11:38:41.144Z,1860.00
2022-08-17T11:39:41.205Z,1952.00
2022-08-17T11:40:41.136Z,2088.00
2022-08-17T11:41:41.112Z,2328.00
2022-08-17T11:42:41.096Z,2548.00
2022-08-17T11:43:42.934Z,2632.00
2022-08-17T11:44:41.115Z,2716.00
2022-08-17T11:45:41.075Z,2716.00
2022-08-17T11:46:41.048Z,2732.00
2022-08-17T11:47:41.094Z,2740.00
2022-08-17T11:48:41.018Z,2736.00
2022-08-17T11:49:41.011Z,2760.00
2022-08-17T11:50:41.009Z,2824.00
2022-08-17T11:51:40.990Z,2908.00
2022-08-17T11:52:40.985Z,3008.00
2022-08-17T11:53:40.949Z,3084.00
2022-08-17T11:54:40.951Z,3136.00
2022-08-17T11:55:44.807Z,3180.00
2022-08-17T11:56:40.954Z,3264.00
2022-08-17T11:57:40.899Z,3344.00
2022-08-17T11:58:40.913Z,3368.00
2022-08-17T11:59:40.897Z,3320.00
2022-08-17T12:00:40.875Z,3416.00
2022-08-17T12:01:40.867Z,3840.00
2022-08-17T12:02:44.395Z,4392.00
2022-08-17T12:03:41.818Z,4880.00
2022-08-17T12:04:40.855Z,5288.00
2022-08-17T12:05:40.794Z,5556.00
2022-08-17T12:06:40.843Z,5708.00
2022-08-17T12:07:40.764Z,5888.00
2022-08-17T12:08:40.816Z,5816.00
2022-08-17T12:09:40.744Z,5712.00
2022-08-17T12:10:40.724Z,5880.00
2022-08-17T12:11:58.789Z,5812.00
2022-08-17T12:12:41.697Z,6096.00
2022-08-17T12:13:40.692Z,5924.00
2022-08-17T12:15:07.897Z,5736.00
2022-08-17T12:15:41.668Z,5772.00
2022-08-17T12:16:40.687Z,5816.00
2022-08-17T12:17:43.051Z,5676.00
2022-08-17T12:18:40.631Z,5504.00
2022-08-17T12:19:40.599Z,5592.00
2022-08-17T12:20:40.607Z,5888.00
2022-08-17T12:21:40.589Z,6020.00
2022-08-17T12:22:40.573Z,5940.00
2022-08-17T12:23:40.574Z,5968.00
2022-08-17T12:24:40.541Z,5972.00
2022-08-17T12:25:40.524Z,5752.00
2022-08-17T12:26:40.539Z,5348.00
2022-08-17T12:27:53.020Z,4944.00
2022-08-17T12:28:41.499Z,4620.00
2022-08-17T12:29:40.475Z,4504.00
2022-08-17T12:30:40.471Z,4624.00
2022-08-17T12:31:40.491Z,5044.00
2022-08-17T12:32:40.455Z,5632.00
2022-08-17T12:33:40.416Z,5976.00
2022-08-17T12:34:40.427Z,6424.00